Forside
METAR-TAF:

METAR-TAF

Lufthavne :

Tri-City Airport

Parsons, Kansas, USA

Breddekreds: 37-19-40N, længdekreds: 095-30-15W, højde: 274 m

Aktuelle vejr

Denne rapport blev lavet for 41 minutter siden, kl. 06:52 UTC
Vind 3 kt fra syd
Temperatur 7°C
Fugtighed 87%
Tryk 1022 hPa
Sigt: 16.1 km
skyfri

METAR: KPPF 220652Z AUTO 19003KT 10SM CLR 07/05 A3018 RMK AO2 SLP217 T00720050

Tid: 02:33 (07:33 UTC)


TAF: fraværende

Vejrobservationer og prognoser fra mere end 4000 lufthavne (METAR og TAF).

De gule og røde prikker repræsenterer de meteorologiske stationer.

Flyt musen over at se navnet på stationen.

Så klik over at se vejr observationer og prognoser.

At skifte det kort: Klik på de grønne knapper med et sort kors for at zoome ind; på den grønne knap med en bindestreg for at zoome ud; eller på de grønne pile for tilstødende kort.


METAR-TAF: